Time;durP1;ratioP1;P1;durP2;ratioP2;P2;SDS_P1;SDS_P2;PMS_P1;PMS_P2;Temp;Humidity;BMP_temperature;BMP_pressure;BME280_temperature;BME280_humidity;BME280_pressure;Samples;Min_cycle;Max_cycle;Signal;HPM_P1;HPM_P2
2023/11/25 02:04:48;;;;;;;38.63;17.25;;;20.90;54.20;;;;;;8390613;28;20972;-48
2023/11/25 02:08:50;;;;;;;34.15;15.82;;;20.80;53.70;;;;;;8385095;28;20433;-49
2023/11/25 02:12:51;;;;;;;36.30;16.63;;;20.80;53.70;;;;;;8375708;28;20037;-51
2023/11/25 02:17:07;;;;;;;38.25;17.58;;;20.80;53.60;;;;;;8386536;28;20589;-49
2023/11/25 02:21:09;;;;;;;34.88;15.40;;;20.80;54.00;;;;;;8387625;28;20037;-50
2023/11/25 02:25:10;;;;;;;29.55;14.25;;;20.70;53.20;;;;;;8387964;28;20033;-49
2023/11/25 02:29:10;;;;;;;35.42;15.50;;;20.70;53.30;;;;;;8387621;28;20094;-49
2023/11/25 02:33:11;;;;;;;27.65;13.95;;;20.60;53.60;;;;;;8387931;28;20037;-49
2023/11/25 02:37:15;;;;;;;30.92;12.18;;;20.50;52.90;;;;;;8387672;28;20395;-50
2023/11/25 02:41:16;;;;;;;28.33;13.48;;;20.50;52.60;;;;;;8387330;28;20033;-49
2023/11/25 02:45:18;;;;;;;31.42;13.48;;;20.60;52.50;;;;;;8387549;28;20041;-48
2023/11/25 02:49:22;;;;;;;26.30;12.80;;;20.60;52.50;;;;;;8387331;28;20107;-48
2023/11/25 02:53:23;;;;;;;25.67;12.38;;;20.60;53.00;;;;;;8386999;28;20032;-49
2023/11/25 02:57:24;;;;;;;26.20;13.27;;;20.60;52.50;;;;;;8387042;28;20036;-50
2023/11/25 03:01:29;;;;;;;;;;;20.60;52.60;;;;;;8387107;28;20453;-48
2023/11/25 03:05:31;;;;;;;21.00;11.25;;;20.50;52.90;;;;;;8386800;28;19912;-48
2023/11/25 03:09:33;;;;;;;28.13;12.65;;;20.40;52.90;;;;;;8386747;28;20040;-54
2023/11/25 03:13:34;;;;;;;22.17;10.65;;;20.40;52.90;;;;;;8378724;28;20052;-54
2023/11/25 03:17:34;;;;;;;22.67;11.40;;;20.40;52.80;;;;;;8364453;28;20029;-53
2023/11/25 03:21:35;;;;;;;22.42;10.77;;;20.40;52.80;;;;;;8364664;28;20509;-54
2023/11/25 03:25:38;;;;;;;24.73;10.77;;;20.40;52.80;;;;;;8364239;28;20032;-53
2023/11/25 03:29:39;;;;;;;20.38;10.43;;;20.40;52.80;;;;;;8363847;28;20033;-54
2023/11/25 03:33:40;;;;;;;23.45;10.98;;;20.40;52.80;;;;;;8364275;28;20584;-53
2023/11/25 03:37:40;;;;;;;22.15;10.38;;;20.40;52.80;;;;;;8363712;28;20055;-55
2023/11/25 03:41:41;;;;;;;19.60;9.95;;;20.40;52.70;;;;;;8363519;28;20040;-51
2023/11/25 03:45:42;;;;;;;22.13;11.48;;;20.40;52.70;;;;;;8363635;28;20398;-53
2023/11/25 03:49:42;;;;;;;20.40;10.43;;;20.40;52.70;;;;;;8363333;28;20033;-52
2023/11/25 03:53:43;;;;;;;20.40;9.75;;;20.40;52.80;;;;;;8363290;28;20501;-54
2023/11/25 03:57:44;;;;;;;18.45;9.38;;;20.40;52.70;;;;;;8363118;28;20037;-53
2023/11/25 04:01:45;;;;;;;18.73;9.07;;;20.40;52.70;;;;;;8362879;28;20534;-52
2023/11/25 04:05:45;;;;;;;18.65;9.80;;;20.30;53.00;;;;;;8363230;28;20406;-53
2023/11/25 04:09:46;;;;;;;19.90;9.20;;;20.30;53.00;;;;;;8362827;28;20029;-53
2023/11/25 04:13:47;;;;;;;15.38;8.45;;;20.30;52.90;;;;;;8362611;28;20045;-53
2023/11/25 04:17:48;;;;;;;19.80;9.45;;;20.30;52.80;;;;;;8362764;28;20040;-53
2023/11/25 04:21:50;;;;;;;16.13;8.25;;;20.30;52.80;;;;;;8362331;28;20545;-54
2023/11/25 04:25:51;;;;;;;17.77;9.05;;;20.30;52.90;;;;;;8361285;28;20032;-51
2023/11/25 04:29:52;;;;;;;16.02;8.82;;;20.30;52.80;;;;;;8362099;28;20052;-54
2023/11/25 04:33:53;;;;;;;14.60;7.82;;;20.30;52.90;;;;;;8361909;28;20087;-54
2023/11/25 04:37:53;;;;;;;15.05;8.57;;;20.30;52.90;;;;;;8361812;28;20029;-54
2023/11/25 04:41:54;;;;;;;17.45;9.13;;;20.30;52.90;;;;;;8361738;28;20033;-51
2023/11/25 04:45:56;;;;;;;17.38;8.63;;;20.30;52.80;;;;;;8361711;28;20089;-54
2023/11/25 04:49:57;;;;;;;16.58;8.35;;;20.30;52.70;;;;;;8361384;28;20122;-52
2023/11/25 04:53:57;;;;;;;14.85;8.07;;;20.20;52.70;;;;;;8360086;28;20033;-54
2023/11/25 04:57:58;;;;;;;15.93;8.20;;;20.20;52.60;;;;;;8361328;28;20466;-53
2023/11/25 05:01:59;;;;;;;13.55;7.15;;;20.20;52.60;;;;;;8360846;28;20125;-53
2023/11/25 05:06:02;;;;;;;13.88;7.20;;;20.10;52.80;;;;;;8361005;28;20040;-54
2023/11/25 05:10:09;;;;;;;16.60;8.18;;;20.10;52.60;;;;;;8361014;28;20111;-54
2023/11/25 05:14:10;;;;;;;15.35;7.95;;;20.20;52.50;;;;;;8360567;28;20627;-53
2023/11/25 05:18:10;;;;;;;12.68;7.28;;;20.20;52.50;;;;;;8360623;28;20029;-50
2023/11/25 05:22:11;;;;;;;13.43;7.15;;;20.20;52.40;;;;;;8360496;28;20037;-53
2023/11/25 05:26:12;;;;;;;16.67;7.78;;;20.20;52.30;;;;;;8360219;28;20041;-53
2023/11/25 05:30:13;;;;;;;17.42;8.13;;;20.20;52.30;;;;;;8360698;28;20410;-52
2023/11/25 05:34:15;;;;;;;14.32;7.40;;;20.20;52.30;;;;;;8360198;28;20037;-50
2023/11/25 05:38:18;;;;;;;11.77;6.30;;;20.20;52.40;;;;;;8360344;28;20258;-52
2023/11/25 05:42:23;;;;;;;12.25;7.05;;;20.20;52.40;;;;;;8359015;28;20128;-49
2023/11/25 05:46:24;;;;;;;13.43;7.20;;;20.20;52.30;;;;;;8360028;28;20392;-52
2023/11/25 05:50:25;;;;;;;11.93;6.97;;;20.20;52.20;;;;;;8359897;28;20090;-51
2023/11/25 05:54:25;;;;;;;11.25;6.40;;;20.20;52.10;;;;;;8358477;28;20116;-50
2023/11/25 05:58:26;;;;;;;14.00;6.93;;;20.20;52.20;;;;;;8360322;28;20029;-51
2023/11/25 06:02:27;;;;;;;11.88;6.40;;;20.20;52.30;;;;;;8358103;28;20520;-50
2023/11/25 06:06:27;;;;;;;13.40;6.43;;;20.10;52.50;;;;;;8359582;28;20093;-50
2023/11/25 06:10:28;;;;;;;11.38;6.47;;;20.10;52.50;;;;;;8359779;28;20065;-50
2023/11/25 06:14:32;;;;;;;12.43;6.20;;;20.10;52.30;;;;;;8359587;28;20383;-51
2023/11/25 06:18:33;;;;;;;10.68;6.28;;;20.20;52.30;;;;;;8359596;28;20029;-51
2023/11/25 06:22:34;;;;;;;10.27;5.88;;;20.20;52.20;;;;;;8359358;28;20037;-50
2023/11/25 06:26:35;;;;;;;12.10;6.15;;;20.20;52.20;;;;;;8359432;28;20033;-53
2023/11/25 06:30:35;;;;;;;9.60;5.72;;;20.20;52.40;;;;;;8359519;28;20041;-51
2023/11/25 06:34:36;;;;;;;12.18;6.43;;;20.10;52.40;;;;;;8359051;28;20037;-51
2023/11/25 06:38:37;;;;;;;9.68;5.95;;;20.20;52.50;;;;;;8359318;28;20473;-51
2023/11/25 06:42:38;;;;;;;11.75;6.07;;;20.10;52.60;;;;;;8359357;28;20044;-51
2023/11/25 06:46:39;;;;;;;10.35;5.82;;;20.10;52.60;;;;;;8358969;28;20029;-52
2023/11/25 06:50:39;;;;;;;13.63;6.50;;;20.10;52.60;;;;;;8363922;28;20037;-50
2023/11/25 06:54:40;;;;;;;9.00;5.47;;;20.10;52.60;;;;;;8364983;28;20061;-50
2023/11/25 06:58:41;;;;;;;9.32;5.85;;;20.10;52.60;;;;;;8365239;28;20033;-51
2023/11/25 07:02:41;;;;;;;11.50;6.28;;;20.10;52.60;;;;;;8364808;28;20120;-51
2023/11/25 07:06:43;;;;;;;11.10;6.13;;;20.10;52.60;;;;;;8364735;28;20041;-51
2023/11/25 07:10:53;;;;;;;9.23;5.30;;;20.10;52.60;;;;;;8364426;28;20036;-50
2023/11/25 07:14:54;;;;;;;10.13;5.47;;;20.10;52.60;;;;;;8364542;28;20399;-52
2023/11/25 07:18:54;;;;;;;11.02;5.55;;;20.10;52.60;;;;;;8364534;28;20434;-50
2023/11/25 07:22:55;;;;;;;8.50;5.20;;;20.10;52.60;;;;;;8364141;28;20045;-50
2023/11/25 07:27:01;;;;;;;10.68;5.47;;;20.10;52.60;;;;;;8364178;28;20040;-50
2023/11/25 07:31:03;;;;;;;7.97;4.88;;;20.10;52.70;;;;;;8364016;28;20033;-51
2023/11/25 07:35:07;;;;;;;7.82;5.03;;;20.10;52.70;;;;;;8364013;28;20057;-50
2023/11/25 07:39:08;;;;;;;8.98;4.68;;;20.10;52.70;;;;;;8363659;28;20029;-51
2023/11/25 07:43:09;;;;;;;9.43;5.15;;;20.20;52.70;;;;;;8363699;28;20076;-50
2023/11/25 07:47:09;;;;;;;8.43;5.07;;;20.20;52.70;;;;;;8363590;28;20116;-51
2023/11/25 07:51:10;;;;;;;7.93;4.47;;;20.20;52.70;;;;;;8363856;28;20037;-52
2023/11/25 07:55:11;;;;;;;8.63;4.90;;;20.20;52.70;;;;;;8363193;28;20036;-50
2023/11/25 07:59:12;;;;;;;7.05;4.38;;;20.10;52.70;;;;;;8363091;28;20033;-49
2023/11/25 08:03:12;;;;;;;9.30;4.63;;;20.10;52.70;;;;;;8362866;28;20064;-51
2023/11/25 08:07:14;;;;;;;8.35;5.03;;;20.10;52.70;;;;;;8363129;28;20044;-50
2023/11/25 08:11:23;;;;;;;9.65;5.07;;;20.10;52.80;;;;;;8361596;28;20064;-51
2023/11/25 08:15:23;;;;;;;9.20;5.30;;;20.10;52.80;;;;;;8362832;28;20112;-50
2023/11/25 08:19:25;;;;;;;6.53;4.47;;;20.10;52.80;;;;;;8362612;28;20055;-51
2023/11/25 08:23:25;;;;;;;8.55;4.40;;;20.20;52.80;;;;;;8362457;28;20064;-52
2023/11/25 08:27:26;;;;;;;10.52;5.47;;;20.20;52.80;;;;;;8362220;28;20064;-52
2023/11/25 08:31:26;;;;;;;8.13;4.70;;;20.20;52.80;;;;;;8362052;28;20033;-51
2023/11/25 08:35:27;;;;;;;7.10;4.47;;;20.20;52.80;;;;;;8362259;28;20102;-52
2023/11/25 08:39:29;;;;;;;7.75;4.55;;;20.10;52.70;;;;;;8361903;28;20029;-51
2023/11/25 08:43:29;;;;;;;7.53;4.78;;;20.10;52.80;;;;;;8361803;28;20082;-49
2023/11/25 08:47:32;;;;;;;7.88;4.57;;;20.20;52.80;;;;;;8361856;28;20037;-51
2023/11/25 08:51:33;;;;;;;8.68;4.50;;;20.10;52.80;;;;;;8361552;28;20055;-52
2023/11/25 08:55:33;;;;;;;7.60;4.35;;;20.10;52.80;;;;;;8361541;28;20471;-52
2023/11/25 08:59:34;;;;;;;8.90;4.88;;;20.10;52.80;;;;;;8361447;28;20036;-50
2023/11/25 09:03:36;;;;;;;7.20;3.75;;;20.10;52.80;;;;;;8361222;28;20102;-52
2023/11/25 09:07:38;;;;;;;5.70;4.05;;;20.10;52.80;;;;;;8360915;28;20035;-47
2023/11/25 09:11:39;;;;;;;6.60;4.07;;;20.10;52.90;;;;;;8360209;28;20029;-49
2023/11/25 09:15:39;;;;;;;;;;;20.10;52.90;;;;;;8361485;28;20029;-49
2023/11/25 09:19:40;;;;;;;6.77;3.77;;;20.10;52.90;;;;;;8360698;28;19962;-49
2023/11/25 09:23:43;;;;;;;8.63;3.65;;;20.10;52.90;;;;;;8361134;28;20048;-50
2023/11/25 09:27:44;;;;;;;6.22;4.13;;;20.10;53.00;;;;;;8360411;28;20033;-51
2023/11/25 09:31:44;;;;;;;;;;;20.10;53.00;;;;;;8360694;28;20091;-49
2023/11/25 09:35:45;;;;;;;5.50;3.77;;;20.00;53.00;;;;;;8360335;28;19955;-50
2023/11/25 09:39:46;;;;;;;4.88;3.50;;;20.10;53.10;;;;;;8360081;28;20553;-48
2023/11/25 09:43:47;;;;;;;5.65;3.78;;;20.00;53.10;;;;;;8360033;28;20037;-49
2023/11/25 09:47:48;;;;;;;5.03;3.72;;;20.00;53.10;;;;;;8359863;28;20487;-49
2023/11/25 09:51:50;;;;;;;7.65;3.65;;;20.00;53.20;;;;;;8360006;28;20592;-49
2023/11/25 09:56:11;;;;;;;6.05;3.72;;;20.10;53.20;;;;;;8359614;28;20059;-47
2023/11/25 10:00:17;;;;;;;5.22;3.58;;;20.00;53.10;;;;;;8359993;28;20031;-48
2023/11/25 10:04:19;;;;;;;4.80;3.15;;;20.10;53.10;;;;;;8359419;28;20513;-50
2023/11/25 10:08:19;;;;;;;4.75;3.40;;;20.10;53.10;;;;;;8359765;28;20483;-54
2023/11/25 10:12:20;;;;;;;5.95;3.58;;;20.00;53.10;;;;;;8359553;28;20398;-53
2023/11/25 10:16:30;;;;;;;6.80;4.13;;;20.10;53.10;;;;;;8359619;28;20501;-53
2023/11/25 10:20:41;;;;;;;5.43;3.50;;;20.10;53.10;;;;;;8358838;28;20033;-53
2023/11/25 10:24:52;;;;;;;6.63;3.58;;;20.10;53.10;;;;;;8362816;28;20474;-53
2023/11/25 10:28:56;;;;;;;4.55;3.33;;;20.10;53.10;;;;;;8366311;28;20065;-52
2023/11/25 10:32:58;;;;;;;4.80;3.50;;;20.10;53.10;;;;;;8366075;28;20040;-54
2023/11/25 10:36:59;;;;;;;5.65;3.00;;;20.10;53.10;;;;;;8365765;28;20039;-53
2023/11/25 10:41:06;;;;;;;5.78;3.60;;;20.10;53.10;;;;;;8365717;28;20619;-53
2023/11/25 10:45:15;;;;;;;6.15;3.72;;;20.10;53.10;;;;;;8365501;28;20040;-53
2023/11/25 10:49:18;;;;;;;5.78;3.25;;;20.10;53.10;;;;;;8365398;28;20537;-53
2023/11/25 10:53:19;;;;;;;5.07;3.20;;;20.10;53.10;;;;;;8365144;28;20509;-52
2023/11/25 10:57:23;;;;;;;4.38;3.15;;;20.10;53.00;;;;;;8365097;28;20025;-51
2023/11/25 11:01:30;;;;;;;5.07;3.40;;;20.10;53.10;;;;;;8364985;28;20056;-54
2023/11/25 11:05:49;;;;;;;5.85;3.20;;;20.10;53.10;;;;;;8365089;28;20056;-53
2023/11/25 11:09:52;;;;;;;5.13;3.13;;;20.10;53.10;;;;;;8364947;28;20720;-54
2023/11/25 11:14:19;;;;;;;4.88;3.13;;;20.10;53.00;;;;;;8364408;28;20075;-53
2023/11/25 11:18:23;;;;;;;5.47;3.75;;;20.10;53.10;;;;;;8364403;28;20037;-52
2023/11/25 11:22:27;;;;;;;5.72;2.90;;;20.10;53.10;;;;;;8364441;28;20033;-48
2023/11/25 11:27:06;;;;;;;4.05;2.97;;;20.10;53.10;;;;;;8363000;28;20029;-47
2023/11/25 11:31:28;;;;;;;5.30;3.13;;;20.10;53.10;;;;;;8364401;28;20024;-51
2023/11/25 11:35:38;;;;;;;4.00;2.80;;;20.10;53.10;;;;;;8363498;28;20108;-49
2023/11/25 11:39:43;;;;;;;7.30;3.20;;;20.10;53.10;;;;;;8363686;28;20470;-49
2023/11/25 11:44:04;;;;;;;4.85;3.03;;;20.10;53.10;;;;;;8363810;28;20115;-49
2023/11/25 11:48:13;;;;;;;4.72;2.90;;;20.10;53.10;;;;;;8363915;28;20033;-48
2023/11/25 11:52:14;;;;;;;4.65;2.88;;;20.10;53.10;;;;;;8363511;28;20037;-51
2023/11/25 11:56:15;;;;;;;4.45;2.95;;;20.10;53.10;;;;;;8363309;28;20082;-49
2023/11/25 12:00:16;;;;;;;4.88;3.05;;;20.10;53.10;;;;;;8363305;28;20048;-51
2023/11/25 12:04:16;;;;;;;4.22;2.78;;;20.10;53.10;;;;;;8362857;28;20761;-48
2023/11/25 12:08:18;;;;;;;3.72;2.60;;;20.10;53.10;;;;;;8362996;28;20548;-47
2023/11/25 12:12:19;;;;;;;3.55;2.80;;;20.10;53.10;;;;;;8362664;28;20071;-47
2023/11/25 12:16:20;;;;;;;4.40;2.78;;;20.10;53.10;;;;;;8362780;28;20041;-49
2023/11/25 12:20:21;;;;;;;3.97;2.75;;;20.10;53.10;;;;;;8362643;28;20437;-49
2023/11/25 12:24:22;;;;;;;4.63;2.78;;;20.10;53.60;;;;;;8362965;28;20474;-47
2023/11/25 12:28:23;;;;;;;3.47;2.55;;;20.10;53.10;;;;;;8362287;28;20052;-52
2023/11/25 12:32:24;;;;;;;5.50;2.88;;;20.10;53.00;;;;;;8362222;28;20509;-52
2023/11/25 12:36:25;;;;;;;4.40;2.40;;;20.10;53.00;;;;;;8362071;28;20517;-52
2023/11/25 12:40:26;;;;;;;4.07;2.63;;;20.10;53.00;;;;;;8361770;28;20371;-51
2023/11/25 12:44:27;;;;;;;4.45;2.78;;;20.10;53.10;;;;;;8361963;28;20509;-52
2023/11/25 12:48:32;;;;;;;3.38;2.90;;;20.10;53.10;;;;;;8361064;28;20033;-50
2023/11/25 12:52:33;;;;;;;3.58;2.45;;;20.10;53.10;;;;;;8361255;28;20032;-51
2023/11/25 12:56:37;;;;;;;4.25;2.65;;;20.10;53.10;;;;;;8361281;28;20036;-51
2023/11/25 13:00:48;;;;;;;3.75;2.53;;;20.10;53.10;;;;;;8361129;28;20029;-52
2023/11/25 13:04:52;;;;;;;4.82;3.03;;;20.10;53.10;;;;;;8360983;28;20418;-51
2023/11/25 13:08:53;;;;;;;3.05;2.13;;;20.00;53.10;;;;;;8361211;28;20494;-50
2023/11/25 13:12:53;;;;;;;3.40;2.20;;;20.00;53.10;;;;;;8360801;28;20183;-52
2023/11/25 13:16:55;;;;;;;2.50;1.92;;;20.00;53.10;;;;;;8361014;28;20045;-50
2023/11/25 13:20:56;;;;;;;5.25;2.58;;;20.00;53.10;;;;;;8360758;28;20071;-49
2023/11/25 13:24:56;;;;;;;3.08;2.38;;;20.10;53.10;;;;;;8360642;28;20032;-52
2023/11/25 13:28:57;;;;;;;2.97;2.40;;;20.10;53.10;;;;;;8360636;28;20029;-51
2023/11/25 13:32:58;;;;;;;4.10;2.22;;;20.10;53.10;;;;;;8360277;28;20029;-49
2023/11/25 13:36:59;;;;;;;2.97;2.20;;;20.10;53.10;;;;;;8360212;28;20035;-51
2023/11/25 13:40:59;;;;;;;4.05;2.45;;;20.10;53.10;;;;;;8360438;28;20029;-52
2023/11/25 13:45:00;;;;;;;3.53;2.35;;;20.10;53.10;;;;;;8359956;28;20402;-53
2023/11/25 13:49:01;;;;;;;3.15;2.28;;;20.00;53.00;;;;;;8360024;28;20048;-50
2023/11/25 13:53:03;;;;;;;2.97;2.22;;;20.00;53.10;;;;;;8360126;28;20441;-53
2023/11/25 13:57:05;;;;;;;4.57;2.50;;;20.00;53.00;;;;;;8359602;28;20465;-51
2023/11/25 14:01:05;;;;;;;3.88;2.05;;;20.00;53.10;;;;;;8359699;28;20037;-52
2023/11/25 14:05:08;;;;;;;3.88;2.58;;;20.00;53.00;;;;;;8359821;28;20040;-51
2023/11/25 14:09:16;;;;;;;3.63;2.00;;;20.10;53.10;;;;;;8359712;28;20032;-53
2023/11/25 14:13:18;;;;;;;3.15;2.53;;;20.00;53.00;;;;;;8359888;28;20025;-52
2023/11/25 14:17:20;;;;;;;3.05;2.28;;;20.10;53.00;;;;;;8359741;28;20445;-49
2023/11/25 14:21:21;;;;;;;3.25;2.15;;;20.00;53.00;;;;;;8359259;28;20108;-50
2023/11/25 14:25:23;;;;;;;3.85;2.30;;;20.10;53.10;;;;;;8359554;28;20033;-49
2023/11/25 14:29:24;;;;;;;3.40;2.20;;;20.00;53.10;;;;;;8359269;28;20037;-53
2023/11/25 14:33:25;;;;;;;3.20;2.08;;;20.00;53.10;;;;;;8359321;28;20079;-53
2023/11/25 14:37:27;;;;;;;3.03;1.88;;;20.00;53.10;;;;;;8359185;28;20033;-53
2023/11/25 14:41:28;;;;;;;3.30;2.40;;;20.00;53.20;;;;;;8359262;28;20017;-53
2023/11/25 14:45:29;;;;;;;2.55;2.35;;;20.00;53.10;;;;;;8359096;28;20493;-52
2023/11/25 14:49:30;;;;;;;2.60;2.03;;;20.00;53.10;;;;;;8358983;28;20075;-51
2023/11/25 14:53:31;;;;;;;3.80;1.98;;;20.00;53.00;;;;;;8359012;28;20041;-52
2023/11/25 14:57:32;;;;;;;3.05;2.13;;;20.00;53.00;;;;;;8358743;28;20033;-52
2023/11/25 15:01:32;;;;;;;3.75;2.38;;;20.00;53.00;;;;;;8358719;28;20334;-53
2023/11/25 15:05:33;;;;;;;3.80;2.08;;;20.00;53.10;;;;;;8358859;28;20025;-53
2023/11/25 15:09:34;;;;;;;3.00;2.08;;;20.00;53.10;;;;;;8359920;28;20394;-52
2023/11/25 15:13:34;;;;;;;2.28;1.67;;;20.00;53.00;;;;;;8364689;28;20065;-53
2023/11/25 15:17:35;;;;;;;2.90;2.38;;;20.00;53.10;;;;;;8364474;28;20029;-53
2023/11/25 15:21:36;;;;;;;3.10;2.10;;;20.00;53.10;;;;;;8364594;28;20044;-52
2023/11/25 15:25:37;;;;;;;3.42;1.88;;;20.00;53.00;;;;;;8364259;28;20037;-53
2023/11/25 15:29:37;;;;;;;3.60;1.98;;;20.10;53.10;;;;;;8364237;28;20052;-54
2023/11/25 15:33:39;;;;;;;3.10;2.08;;;20.00;53.00;;;;;;8363870;28;20033;-53
2023/11/25 15:37:39;;;;;;;3.15;2.08;;;20.00;53.00;;;;;;8363934;28;20052;-51
2023/11/25 15:41:40;;;;;;;2.88;2.03;;;20.00;53.00;;;;;;8363776;28;20040;-52
2023/11/25 15:45:41;;;;;;;3.08;2.03;;;20.00;52.90;;;;;;8363615;28;20083;-50
2023/11/25 15:49:42;;;;;;;2.55;1.80;;;20.00;52.90;;;;;;8363418;28;20071;-53
2023/11/25 15:53:43;;;;;;;2.50;1.60;;;20.00;53.00;;;;;;8363347;28;20037;-51
2023/11/25 15:57:44;;;;;;;2.55;1.73;;;20.00;53.00;;;;;;8363182;28;20025;-54
2023/11/25 16:01:44;;;;;;;2.80;1.95;;;19.90;53.00;;;;;;8363174;28;20143;-53
2023/11/25 16:05:45;;;;;;;2.28;2.08;;;19.90;53.10;;;;;;8362985;28;20466;-52
2023/11/25 16:09:46;;;;;;;2.67;1.95;;;19.90;53.10;;;;;;8363256;28;20037;-54
2023/11/25 16:13:47;;;;;;;2.10;1.63;;;19.90;53.20;;;;;;8362893;28;20037;-54
2023/11/25 16:17:47;;;;;;;3.58;2.08;;;19.90;53.20;;;;;;8362519;28;20033;-53
2023/11/25 16:21:52;;;;;;;2.58;1.63;;;19.90;53.20;;;;;;8362754;28;20541;-53
2023/11/25 16:25:53;;;;;;;2.72;1.85;;;19.90;53.20;;;;;;8362292;28;20064;-53
2023/11/25 16:29:54;;;;;;;4.40;2.20;;;19.90;53.20;;;;;;8362393;28;20037;-54
2023/11/25 16:33:55;;;;;;;2.28;1.90;;;19.90;53.10;;;;;;8362167;28;20037;-52
2023/11/25 16:37:55;;;;;;;3.28;2.00;;;20.00;53.10;;;;;;8362343;28;20082;-53
2023/11/25 16:41:57;;;;;;;1.95;1.40;;;20.00;53.00;;;;;;8361846;28;20133;-53
2023/11/25 16:46:00;;;;;;;3.25;2.08;;;20.00;53.40;;;;;;8361729;28;20091;-52
2023/11/25 16:50:02;;;;;;;1.70;1.42;;;20.00;52.80;;;;;;8361827;28;20486;-53
2023/11/25 16:54:03;;;;;;;2.33;1.70;;;20.00;52.80;;;;;;8361508;28;20049;-53
2023/11/25 16:58:03;;;;;;;2.10;1.77;;;20.00;52.80;;;;;;8361328;28;20544;-50
2023/11/25 17:02:05;;;;;;;2.20;1.70;;;20.00;52.80;;;;;;8361129;28;20048;-52
2023/11/25 17:06:08;;;;;;;2.40;1.80;;;20.00;52.70;;;;;;8361113;28;20036;-54
2023/11/25 17:10:09;;;;;;;2.72;1.90;;;20.00;52.70;;;;;;8361024;28;20094;-49
2023/11/25 17:14:10;;;;;;;2.22;1.60;;;20.10;52.70;;;;;;8360935;28;20090;-50
2023/11/25 17:18:11;;;;;;;3.45;1.73;;;20.00;52.70;;;;;;8360892;28;20029;-52
2023/11/25 17:22:12;;;;;;;1.88;1.40;;;20.00;52.80;;;;;;8360836;28;20041;-50
2023/11/25 17:26:12;;;;;;;;;;;20.00;52.70;;;;;;8360894;28;20044;-50
2023/11/25 17:30:13;;;;;;;2.03;1.40;;;20.00;52.70;;;;;;8360641;28;19909;-52
2023/11/25 17:34:14;;;;;;;2.08;1.42;;;20.00;52.70;;;;;;8360090;28;20025;-49
2023/11/25 17:38:17;;;;;;;2.40;1.50;;;20.00;52.70;;;;;;8358919;28;20110;-52
2023/11/25 17:42:18;;;;;;;1.70;1.42;;;20.00;52.70;;;;;;8360246;28;20033;-51
2023/11/25 17:46:18;;;;;;;1.35;1.25;;;20.00;52.70;;;;;;8360251;28;20037;-51
2023/11/25 17:50:19;;;;;;;3.10;1.52;;;20.00;52.70;;;;;;8360134;28;20129;-49
2023/11/25 17:54:20;;;;;;;1.30;1.15;;;20.00;52.70;;;;;;8359908;28;20116;-52
2023/11/25 17:58:21;;;;;;;1.85;1.52;;;20.10;52.70;;;;;;8359915;28;20059;-51
2023/11/25 18:02:22;;;;;;;1.75;1.30;;;20.00;52.60;;;;;;8359697;28;20119;-52
2023/11/25 18:06:24;;;;;;;1.80;1.58;;;20.00;52.60;;;;;;8359571;28;20064;-52
2023/11/25 18:10:27;;;;;;;2.03;1.40;;;20.10;52.60;;;;;;8359768;28;20040;-51
2023/11/25 18:14:28;;;;;;;2.03;1.60;;;20.00;52.60;;;;;;8359495;28;20040;-49
2023/11/25 18:18:29;;;;;;;1.27;1.08;;;20.00;52.60;;;;;;8359561;28;20482;-51
2023/11/25 18:22:30;;;;;;;1.63;1.27;;;20.00;52.60;;;;;;8359615;28;20506;-48
2023/11/25 18:26:31;;;;;;;2.03;1.50;;;20.00;52.70;;;;;;8359566;28;20475;-49
2023/11/25 18:30:32;;;;;;;1.75;1.30;;;20.00;52.70;;;;;;8359189;28;20033;-49
2023/11/25 18:34:34;;;;;;;1.58;1.30;;;20.00;52.70;;;;;;8359298;28;20041;-47
2023/11/25 18:38:34;;;;;;;1.38;1.23;;;20.00;52.70;;;;;;8359325;28;20391;-49
2023/11/25 18:42:37;;;;;;;2.42;1.33;;;20.00;52.70;;;;;;8359019;28;20051;-48
2023/11/25 18:46:38;;;;;;;2.17;1.30;;;20.00;52.70;;;;;;8363896;28;20037;-50
2023/11/25 18:50:38;;;;;;;2.05;1.80;;;20.00;52.70;;;;;;8365452;28;20120;-50
2023/11/25 18:54:43;;;;;;;1.80;1.40;;;20.00;52.70;;;;;;8365283;28;20039;-49
2023/11/25 18:58:44;;;;;;;1.80;1.50;;;20.00;52.70;;;;;;8365218;28;20500;-50
2023/11/25 19:02:45;;;;;;;2.15;1.50;;;20.00;52.70;;;;;;8364896;28;20127;-49
2023/11/25 19:06:46;;;;;;;;;;;20.00;52.70;;;;;;8365358;28;20403;-48
2023/11/25 19:10:48;;;;;;;;;;;20.00;52.70;;;;;;8365392;28;20007;-48
2023/11/25 19:14:48;;;;;;;1.90;1.27;;;20.00;52.70;;;;;;8363500;28;19917;-49
2023/11/25 19:18:49;;;;;;;2.45;1.42;;;20.00;52.70;;;;;;8364584;28;20037;-49
2023/11/25 19:22:50;;;;;;;1.45;1.10;;;20.00;52.70;;;;;;8365034;28;20049;-50
2023/11/25 19:26:51;;;;;;;1.58;1.30;;;20.10;52.70;;;;;;8364013;28;20055;-49
2023/11/25 19:30:52;;;;;;;1.40;1.10;;;20.00;52.70;;;;;;8364432;28;20045;-51
2023/11/25 19:34:53;;;;;;;1.45;1.20;;;20.10;52.70;;;;;;8364068;28;20116;-51
2023/11/25 19:38:53;;;;;;;1.50;1.05;;;20.00;52.60;;;;;;8363870;28;20036;-51
2023/11/25 19:42:54;;;;;;;2.08;1.55;;;20.00;52.70;;;;;;8364164;28;20032;-49
2023/11/25 19:46:57;;;;;;;3.28;1.30;;;20.00;52.70;;;;;;8363932;28;20398;-52
2023/11/25 19:50:57;;;;;;;1.48;1.08;;;20.00;52.70;;;;;;8363485;28;20037;-52
2023/11/25 19:54:58;;;;;;;1.75;1.30;;;20.00;52.70;;;;;;8363047;28;20029;-52
2023/11/25 19:58:59;;;;;;;1.67;1.35;;;20.00;52.70;;;;;;8363392;28;20489;-49
2023/11/25 20:03:00;;;;;;;1.52;1.25;;;20.00;52.70;;;;;;8363203;28;20045;-50
2023/11/25 20:07:01;;;;;;;1.90;1.02;;;20.00;52.70;;;;;;8363000;28;20051;-52
2023/11/25 20:11:02;;;;;;;;;;;20.00;52.70;;;;;;8363493;28;20479;-49
2023/11/25 20:15:04;;;;;;;1.67;1.48;;;20.00;52.70;;;;;;8362593;28;20389;-51
2023/11/25 20:19:05;;;;;;;1.60;1.30;;;20.00;52.80;;;;;;8362807;28;20025;-50
2023/11/25 20:23:05;;;;;;;1.70;1.30;;;20.00;52.80;;;;;;8362544;28;20143;-52
2023/11/25 20:27:06;;;;;;;1.45;1.20;;;20.00;52.80;;;;;;8362350;28;20112;-51
2023/11/25 20:31:07;;;;;;;1.35;1.10;;;20.00;52.80;;;;;;8362409;28;20040;-50
2023/11/25 20:35:08;;;;;;;1.73;1.20;;;20.00;52.70;;;;;;8361993;28;20036;-52
2023/11/25 20:39:09;;;;;;;1.35;1.00;;;20.00;52.70;;;;;;8362033;28;20028;-51
2023/11/25 20:43:10;;;;;;;1.40;1.15;;;20.00;52.70;;;;;;8362106;28;20041;-52
2023/11/25 20:47:11;;;;;;;1.35;1.20;;;20.00;52.70;;;;;;8362015;28;20041;-52
2023/11/25 20:51:11;;;;;;;2.13;1.50;;;20.00;52.70;;;;;;8361627;28;20319;-54
2023/11/25 20:55:12;;;;;;;2.13;1.30;;;20.00;52.70;;;;;;8360753;28;20091;-52
2023/11/25 20:59:13;;;;;;;1.92;1.40;;;20.00;52.70;;;;;;8361235;28;20024;-53
2023/11/25 21:03:14;;;;;;;1.33;1.23;;;20.00;52.70;;;;;;8361247;28;20065;-53
2023/11/25 21:07:14;;;;;;;1.67;1.35;;;20.00;52.70;;;;;;8360542;28;20029;-54
2023/11/25 21:11:15;;;;;;;1.23;1.00;;;20.00;52.70;;;;;;8360974;28;20119;-52
2023/11/25 21:15:16;;;;;;;1.40;1.08;;;20.00;52.80;;;;;;8360751;28;20119;-53
2023/11/25 21:19:16;;;;;;;1.55;1.30;;;20.00;52.80;;;;;;8360878;28;20056;-52
2023/11/25 21:23:17;;;;;;;1.17;0.82;;;20.00;52.90;;;;;;8359651;28;20525;-52
2023/11/25 21:27:18;;;;;;;1.10;1.00;;;19.90;52.90;;;;;;8360526;28;20033;-53
2023/11/25 21:31:18;;;;;;;1.45;1.02;;;19.90;52.90;;;;;;8360531;28;20067;-50
2023/11/25 21:35:19;;;;;;;1.42;1.13;;;19.90;52.90;;;;;;8360303;28;20115;-53
2023/11/25 21:39:20;;;;;;;1.50;1.10;;;19.90;52.90;;;;;;8360314;28;20039;-53
2023/11/25 21:43:21;;;;;;;1.00;1.00;;;19.90;52.90;;;;;;8359662;28;20382;-52
2023/11/25 21:47:22;;;;;;;1.00;0.90;;;19.90;52.90;;;;;;8360190;28;20036;-52
2023/11/25 21:51:23;;;;;;;1.23;0.88;;;19.90;52.90;;;;;;8360285;28;20502;-49
2023/11/25 21:55:24;;;;;;;0.95;0.90;;;19.90;53.00;;;;;;8360007;28;20033;-48
2023/11/25 21:59:24;;;;;;;0.98;0.98;;;19.90;53.00;;;;;;8359933;28;20033;-48
2023/11/25 22:03:26;;;;;;;1.20;1.00;;;19.90;53.10;;;;;;8360472;28;20517;-51
2023/11/25 22:07:26;;;;;;;;;;;19.90;53.10;;;;;;8360324;28;20048;-47
2023/11/25 22:11:27;;;;;;;1.50;1.10;;;19.80;53.00;;;;;;8360499;28;19909;-49
2023/11/25 22:15:28;;;;;;;1.20;0.93;;;19.80;53.10;;;;;;8359511;28;20118;-48
2023/11/25 22:19:28;;;;;;;1.63;1.20;;;19.80;53.10;;;;;;8362621;28;20090;-48
2023/11/25 22:23:31;;;;;;;1.35;1.05;;;19.80;53.10;;;;;;8367514;28;20057;-49
2023/11/25 22:27:32;;;;;;;1.42;1.00;;;19.80;53.10;;;;;;8366283;28;20493;-47
2023/11/25 22:31:33;;;;;;;1.13;0.90;;;19.80;53.20;;;;;;8366018;28;20033;-48
2023/11/25 22:35:33;;;;;;;1.00;0.90;;;19.80;53.20;;;;;;8365989;28;20483;-49
2023/11/25 22:39:35;;;;;;;1.35;1.00;;;19.80;53.20;;;;;;8365748;28;20479;-49
2023/11/25 22:43:36;;;;;;;0.77;0.77;;;19.80;53.20;;;;;;8365694;28;20115;-49
2023/11/25 22:47:37;;;;;;;1.02;0.95;;;19.80;53.20;;;;;;8365938;28;20533;-48
2023/11/25 22:51:38;;;;;;;1.55;1.05;;;19.80;53.20;;;;;;8365297;28;20045;-49
2023/11/25 22:55:38;;;;;;;0.90;0.80;;;19.80;53.70;;;;;;8365296;28;20537;-49
2023/11/25 22:59:39;;;;;;;1.35;1.02;;;19.80;53.30;;;;;;8365620;28;20102;-49